Date,TemperatureHighF,TemperatureAvgF,TemperatureLowF,DewpointHighF,DewpointAvgF,DewpointLowF,HumidityHigh,HumidityAvg,HumidityLow,PressureMaxIn,PressureMinIn,WindSpeedMaxMPH,WindSpeedAvgMPH,GustSpeedMaxMPH,PrecipitationSumIn
2013-4-1,72.8,63.3,58.1,54.3,47.8,40.3,85,61,33,29.76,29.64,0,0,0,0.00
2013-4-2,65.1,55.6,46.5,41.0,36.7,30.9,65,50,33,29.96,29.76,0,0,0,0.00
2013-4-3,62.4,54.9,47.8,33.2,28.9,22.3,46,37,31,30.07,29.91,0,0,0,0.00
2013-4-4,52.8,45.4,39.5,36.2,32.9,26.0,82,63,25,30.07,29.75,0,0,0,0.00
2013-4-5,63.6,49.6,39.0,49.4,40.8,34.0,85,73,50,29.85,29.70,0,0,0,0.00
2013-4-6,69.6,55.2,41.1,45.0,39.8,33.4,76,58,38,30.02,29.84,0,0,0,0.00
2013-4-7,71.4,59.3,47.1,51.0,43.9,35.4,69,57,45,30.06,29.90,0,0,0,0.00
2013-4-8,77.1,66.4,56.4,57.8,53.5,49.6,81,64,47,29.98,29.86,0,0,0,0.00
2013-4-9,82.2,70.0,57.0,61.9,56.6,49.6,79,64,47,30.00,29.88,22,0,22,0.00
2013-4-10,85.4,76.4,66.0,63.8,60.1,55.9,77,58,45,29.92,29.77,0,0,0,0.00
2013-4-11,80.2,71.4,63.6,66.5,61.5,56.0,85,72,57,29.80,29.58,0,0,0,0.00
2013-4-12,81.1,72.1,65.6,66.4,58.9,44.3,89,66,35,29.63,29.45,0,0,0,0.00
2013-4-13,75.5,64.1,51.8,47.1,44.7,41.3,70,51,33,29.83,29.63,0,0,0,0.00
2013-4-14,75.3,63.4,50.5,53.4,47.2,40.7,71,57,41,29.90,29.79,0,0,0,0.00
2013-4-15,72.3,65.9,61.3,61.7,57.2,52.4,82,74,66,29.99,29.78,0,0,0,0.00
2013-4-16,78.6,68.3,61.8,64.8,59.7,55.9,84,74,57,30.10,29.98,0,0,0,0.00
2013-4-17,82.0,71.0,61.3,66.0,60.8,55.9,84,71,51,30.06,29.90,0,0,0,0.00
2013-4-18,80.6,72.0,66.0,65.3,61.6,58.9,83,70,56,29.98,29.80,0,0,0,0.00
2013-4-19,79.8,69.3,57.3,68.6,62.7,50.9,86,80,65,29.82,29.55,0,0,0,0.00
2013-4-20,65.4,56.6,49.1,51.4,40.4,34.4,81,56,37,30.05,29.70,0,0,0,0.00
2013-4-21,64.5,54.9,46.2,46.4,41.6,37.6,72,61,49,30.23,30.05,0,0,0,0.00
2013-4-22,66.0,55.0,44.4,42.2,37.5,32.9,69,54,34,30.21,30.01,0,0,0,0.00
2013-4-23,69.9,59.4,52.8,55.6,47.9,39.6,74,66,58,30.07,29.90,0,0,0,0.00
2013-4-24,74.6,63.5,54.5,59.7,54.0,48.5,86,72,55,29.95,29.81,0,0,0,0.00
2013-4-25,72.5,63.5,54.8,57.2,47.7,40.5,80,58,33,30.07,29.85,0,0,0,0.00
2013-4-26,72.5,61.6,50.3,47.9,42.2,36.3,62,50,35,30.22,30.05,0,0,0,0.00
2013-4-27,65.8,60.6,57.9,54.5,50.9,47.5,83,71,59,30.16,30.04,0,0,0,0.00
2013-4-28,60.8,58.2,56.8,57.0,54.2,52.3,89,87,83,30.05,29.85,0,0,0,0.00
2013-4-29,71.7,63.4,57.9,64.5,58.9,54.7,91,86,71,29.86,29.74,0,0,0,0.00